Details From YBMK - Mackay
To YBRK - Rockhampton
Flight Number -
Tags Routegen Generated
Created
Modified
Stats Distance 150 nm / 277 km
Max Altitude 1,800 ft / 549 m
Waypoints 7
Social Downloads 0
Likes 0
Share VATSIM

Download

Looking for another format? Having issues loading an existing format? Contact us
Advertisement - Login to hide

Notes

Departing runway 14 YBMK. Arriving runway 15 YBRK.

Route

YBMK -21.24_+149.23 -21.25_+149.24 -21.99_+149.66 -23.22_+150.40 -23.23_+150.41 YBRK

ID Type Via Altitude Latitude Longitude Leg Dist Tot Dist Heading (true) Name
O YBMK APT - 0 ft / 0 m -21.17833˚ 149.18767˚ - 0 nm - -
-21.24_+149.23 DME - 1,800 ft / 549 m -21.23958˚ 149.22899˚ 4 nm 4 nm 148° / 148° -
-21.25_+149.24 DME - 1,800 ft / 549 m -21.25246˚ 149.23608˚ 0 nm 5 nm 153° / 153° -
-21.99_+149.66 DME - 1,800 ft / 549 m -21.98930˚ 149.66449˚ 50 nm 55 nm 152° / 152° -
-23.22_+150.40 DME - 1,800 ft / 549 m -23.22184˚ 150.40362˚ 84 nm 140 nm 151° / 151° -
-23.23_+150.41 DME - 1,800 ft / 549 m -23.23471˚ 150.41082˚ 0 nm 140 nm 153° / 153° -
O YBRK APT - 0 ft / 0 m -23.36872˚ 150.47035˚ 8 nm 149 nm 158° / 158° -

Altitude Profile

Advertisement - Login to hide

YBMK

Details ICAO YBMK (MKY)
Name Mackay
Region Australia
Timezone Australia/Brisbane (UTC+10.0)
Stats Elevation 18 ft / 5 m (AMSL)
Location -21.171614° 149.181130°
Runways 2
Magnetic Variation 8.382° E

METAR

YBMK 170400Z AUTO 12016KT 9999 // SCT044 30/17 Q1012

Decode

TAF

Not found

Departure Runways

ID Width Length Bearing (true) Bearing (mag) Surface Threshold Offset Overrun Length
05 98 ft / 30 m 4,411 ft / 1,344 m 57.80° 49.42° Asphalt 194 ft / 59 m 0 ft / 0 m
14 148 ft / 45 m 6,516 ft / 1,986 m 147.90° 139.52° Asphalt 0 ft / 0 m 0 ft / 0 m
23 98 ft / 30 m 4,411 ft / 1,344 m 237.80° 229.42° Asphalt 0 ft / 0 m 0 ft / 0 m
32 148 ft / 45 m 6,516 ft / 1,986 m 327.90° 319.52° Asphalt 0 ft / 0 m 0 ft / 0 m

YBRK

Details ICAO YBRK (ROK)
Name Rockhampton
Region Australia
Timezone Australia/Brisbane (UTC+10.0)
Stats Elevation 34 ft / 10 m (AMSL)
Location -23.378793° 150.473288°
Runways 2
Magnetic Variation 9.207° E

METAR

YBRK 170400Z AUTO 08008KT 060V120 9999 // NCD 31/13 Q1012

Decode

TAF

TAF TAF YBRK 162318Z 1700/1724 08010KT 9999 SCT035 FM171400 12007KT 9999 SCT010 FM172300 10011KT 9999 SCT030

Decode

Destination Runways

ID Width Length Bearing (true) Bearing (mag) Surface Threshold Offset Overrun Length
04 102 ft / 31 m 5,395 ft / 1,644 m 52.34° 43.13° Asphalt 0 ft / 0 m 20 ft / 6 m
15 148 ft / 45 m 8,649 ft / 2,636 m 157.80° 148.59° Asphalt 0 ft / 0 m 0 ft / 0 m
22 102 ft / 31 m 5,395 ft / 1,644 m 232.34° 223.13° Asphalt 0 ft / 0 m 0 ft / 0 m
33 148 ft / 45 m 8,649 ft / 2,636 m 337.80° 328.59° Asphalt 0 ft / 0 m 0 ft / 0 m

Popular Alternatives